createdAt,value
2019-03-17T00:00:04.181Z,12.27
2019-03-17T00:02:36.251Z,11.67
2019-03-17T00:05:07.317Z,11.23
2019-03-17T00:07:37.825Z,10.83
2019-03-17T00:10:08.173Z,11.50
2019-03-17T00:12:38.468Z,12.37
2019-03-17T00:15:08.797Z,11.67
2019-03-17T00:17:41.751Z,12.43
2019-03-17T00:20:11.781Z,12.87
2019-03-17T00:22:43.077Z,13.40
2019-03-17T00:25:13.759Z,13.83
2019-03-17T00:27:44.004Z,13.37
2019-03-17T00:30:14.494Z,12.97
2019-03-17T00:32:44.815Z,13.83
2019-03-17T00:35:15.074Z,14.60
2019-03-17T00:37:45.335Z,14.07
2019-03-17T00:40:15.633Z,13.37
2019-03-17T00:42:45.874Z,13.53
2019-03-17T00:45:16.273Z,13.40
2019-03-17T00:47:46.567Z,14.57
2019-03-17T00:50:16.857Z,14.50
2019-03-17T00:52:47.125Z,14.00
2019-03-17T00:55:17.433Z,14.30
2019-03-17T00:57:47.715Z,14.33
2019-03-17T01:00:18.564Z,14.00
2019-03-17T01:02:48.843Z,13.70
2019-03-17T01:05:19.781Z,13.03
2019-03-17T01:07:50.023Z,11.90
2019-03-17T01:10:20.505Z,11.53
2019-03-17T01:12:50.717Z,10.67
2019-03-17T01:15:20.979Z,9.97
2019-03-17T01:17:51.265Z,10.03
2019-03-17T01:20:21.571Z,10.30
2019-03-17T01:22:51.825Z,9.57
2019-03-17T01:25:22.385Z,9.63
2019-03-17T01:27:52.631Z,10.13
2019-03-17T01:30:23.209Z,10.97
2019-03-17T01:32:53.445Z,10.30
2019-03-17T01:35:23.753Z,10.50
2019-03-17T01:37:54.045Z,9.57
2019-03-17T01:40:24.316Z,10.37
2019-03-17T01:42:54.575Z,10.43
2019-03-17T01:45:25.152Z,10.30
2019-03-17T01:47:55.375Z,9.90
2019-03-17T01:50:27.118Z,10.60
2019-03-17T01:52:57.356Z,10.67
2019-03-17T01:55:28.175Z,11.00
2019-03-17T01:57:58.428Z,11.53
2019-03-17T02:00:28.946Z,11.50
2019-03-17T02:02:59.367Z,9.77
2019-03-17T02:05:29.990Z,11.20
2019-03-17T02:08:00.202Z,11.60
2019-03-17T02:10:30.805Z,10.80
2019-03-17T02:13:01.198Z,11.17
2019-03-17T02:15:31.511Z,10.57
2019-03-17T02:18:01.822Z,11.27
2019-03-17T02:20:32.002Z,10.53
2019-03-17T02:23:02.266Z,11.37
2019-03-17T02:25:32.527Z,12.10
2019-03-17T02:28:02.836Z,10.30
2019-03-17T02:30:33.162Z,10.97
2019-03-17T02:33:03.596Z,11.10
2019-03-17T02:35:39.366Z,11.30
2019-03-17T02:38:07.177Z,10.67
2019-03-17T02:40:37.683Z,11.03
2019-03-17T02:43:08.181Z,12.17
2019-03-17T02:45:38.419Z,11.70
2019-03-17T02:48:09.036Z,11.60
2019-03-17T02:50:44.808Z,11.07
2019-03-17T02:53:15.265Z,11.40
2019-03-17T02:55:45.518Z,11.83
2019-03-17T02:58:15.934Z,12.30
2019-03-17T03:00:46.515Z,12.23
2019-03-17T03:03:16.854Z,12.13
2019-03-17T03:05:54.689Z,12.30
2019-03-17T03:08:20.632Z,11.67
2019-03-17T03:10:50.895Z,12.17
2019-03-17T03:13:22.673Z,11.20
2019-03-17T03:15:53.180Z,12.27
2019-03-17T03:18:23.531Z,12.77
2019-03-17T03:20:53.734Z,12.50
2019-03-17T03:23:24.034Z,13.10
2019-03-17T03:25:54.561Z,13.00
2019-03-17T03:28:41.424Z,12.47
2019-03-17T03:31:11.655Z,12.90
2019-03-17T03:33:42.057Z,12.73
2019-03-17T03:36:12.371Z,12.60
2019-03-17T03:38:42.655Z,13.47
2019-03-17T03:41:12.919Z,13.70
2019-03-17T03:43:43.198Z,13.27
2019-03-17T03:46:13.482Z,13.87
2019-03-17T03:48:43.717Z,14.10
2019-03-17T03:51:14.223Z,14.30
2019-03-17T03:53:44.415Z,14.50
2019-03-17T03:56:14.660Z,15.43
2019-03-17T03:58:44.864Z,15.67
2019-03-17T04:01:15.165Z,15.90
2019-03-17T04:03:45.462Z,15.67
2019-03-17T04:06:26.213Z,16.10
2019-03-17T04:08:47.734Z,16.20
2019-03-17T04:11:17.993Z,15.83
2019-03-17T04:13:48.282Z,17.03
2019-03-17T04:16:18.518Z,17.57
2019-03-17T04:18:49.890Z,17.67
2019-03-17T04:21:20.304Z,18.10
2019-03-17T04:23:51.112Z,17.77
2019-03-17T04:26:21.397Z,17.30
2019-03-17T04:28:51.689Z,18.43
2019-03-17T04:31:22.065Z,18.50
2019-03-17T04:33:52.349Z,19.27
2019-03-17T04:36:22.732Z,19.97
2019-03-17T04:38:52.983Z,18.23
2019-03-17T04:41:23.189Z,19.40
2019-03-17T04:43:53.393Z,19.70
2019-03-17T04:46:23.835Z,20.40
2019-03-17T04:48:54.175Z,18.93
2019-03-17T04:51:25.475Z,19.13
2019-03-17T04:53:55.765Z,19.47
2019-03-17T04:56:26.011Z,20.43
2019-03-17T04:58:56.341Z,20.27
2019-03-17T05:01:26.705Z,20.70
2019-03-17T05:03:56.936Z,19.87
2019-03-17T05:06:27.456Z,21.23
2019-03-17T05:08:57.725Z,21.00
2019-03-17T05:11:28.037Z,20.73
2019-03-17T05:13:58.739Z,20.43
2019-03-17T05:16:28.953Z,19.73
2019-03-17T05:18:59.814Z,20.80
2019-03-17T05:21:30.073Z,19.80
2019-03-17T05:24:00.273Z,20.63
2019-03-17T05:26:31.015Z,20.93
2019-03-17T05:29:01.252Z,19.87
2019-03-17T05:31:31.528Z,19.63
2019-03-17T05:34:01.885Z,19.80
2019-03-17T05:36:32.205Z,19.07
2019-03-17T05:39:02.470Z,19.50
2019-03-17T05:41:32.982Z,20.37
2019-03-17T05:44:03.263Z,21.00
2019-03-17T05:46:33.639Z,19.10
2019-03-17T05:49:03.909Z,19.20
2019-03-17T05:51:34.260Z,19.17
2019-03-17T05:54:04.699Z,20.47
2019-03-17T05:56:35.182Z,20.53
2019-03-17T05:59:05.470Z,19.90
2019-03-17T06:01:36.927Z,20.23
2019-03-17T06:04:07.200Z,20.77
2019-03-17T06:06:37.550Z,19.33
2019-03-17T06:09:08.306Z,19.70
2019-03-17T06:11:38.596Z,20.67
2019-03-17T06:14:08.900Z,20.47
2019-03-17T06:16:39.429Z,20.37
2019-03-17T06:19:09.794Z,19.37
2019-03-17T06:21:40.288Z,20.47
2019-03-17T06:24:10.528Z,21.07
2019-03-17T06:26:40.861Z,20.47
2019-03-17T06:29:11.148Z,21.10
2019-03-17T06:31:42.069Z,20.03
2019-03-17T06:34:12.343Z,21.47
2019-03-17T06:36:42.678Z,20.63
2019-03-17T06:39:12.972Z,20.43
2019-03-17T06:41:43.232Z,20.50
2019-03-17T06:44:13.602Z,20.57
2019-03-17T06:46:43.874Z,19.33
2019-03-17T06:49:14.138Z,20.03
2019-03-17T06:51:44.412Z,19.23
2019-03-17T06:54:14.770Z,19.30
2019-03-17T06:56:45.056Z,19.47
2019-03-17T06:59:17.523Z,18.53
2019-03-17T07:01:47.306Z,18.47
2019-03-17T07:04:17.592Z,19.47
2019-03-17T07:06:47.938Z,17.83
2019-03-17T07:09:18.272Z,17.80
2019-03-17T07:11:48.594Z,17.60
2019-03-17T07:14:19.690Z,17.67
2019-03-17T07:16:50.008Z,18.20
2019-03-17T07:19:21.426Z,17.00
2019-03-17T07:21:52.341Z,17.60
2019-03-17T07:24:22.620Z,17.17
2019-03-17T07:26:52.890Z,16.83
2019-03-17T07:29:23.326Z,15.77
2019-03-17T07:31:53.627Z,16.20
2019-03-17T07:34:24.256Z,16.07
2019-03-17T07:36:54.913Z,15.50
2019-03-17T07:39:25.438Z,15.17
2019-03-17T07:41:55.831Z,15.57
2019-03-17T07:44:26.496Z,14.83
2019-03-17T07:46:58.418Z,15.13
2019-03-17T07:49:28.762Z,13.53
2019-03-17T07:51:59.014Z,13.70
2019-03-17T07:54:29.544Z,12.60
2019-03-17T07:56:59.739Z,12.67
2019-03-17T07:59:29.926Z,12.70
2019-03-17T08:02:00.243Z,12.93
2019-03-17T08:04:42.007Z,11.93
2019-03-17T08:07:02.427Z,12.10
2019-03-17T08:09:32.697Z,11.80
2019-03-17T08:12:03.391Z,11.73
2019-03-17T08:14:33.767Z,11.53
2019-03-17T08:17:03.983Z,10.33
2019-03-17T08:19:34.647Z,10.87
2019-03-17T08:22:04.917Z,10.50
2019-03-17T08:24:35.208Z,10.10
2019-03-17T08:27:05.510Z,10.17
2019-03-17T08:29:36.126Z,9.53
2019-03-17T08:32:06.342Z,10.00
2019-03-17T08:34:36.658Z,9.33
2019-03-17T08:37:07.607Z,9.53
2019-03-17T08:39:37.967Z,9.47
2019-03-17T08:42:08.615Z,10.17
2019-03-17T08:44:39.239Z,9.13
2019-03-17T08:47:10.059Z,9.73
2019-03-17T08:49:40.334Z,9.47
2019-03-17T08:52:10.881Z,9.87
2019-03-17T08:54:41.271Z,10.00
2019-03-17T08:57:11.513Z,9.37
2019-03-17T08:59:42.085Z,9.67
2019-03-17T09:02:12.588Z,9.07
2019-03-17T09:04:42.965Z,10.27
2019-03-17T09:07:14.267Z,11.60
2019-03-17T09:09:44.674Z,9.77
2019-03-17T09:12:15.120Z,10.20
2019-03-17T09:14:45.518Z,9.50
2019-03-17T09:17:16.097Z,9.37
2019-03-17T09:19:46.503Z,10.67
2019-03-17T09:22:17.251Z,9.60
2019-03-17T09:24:47.809Z,10.03
2019-03-17T09:27:18.407Z,9.80
2019-03-17T09:29:48.689Z,9.90
2019-03-17T09:32:19.045Z,9.13
2019-03-17T09:34:49.278Z,8.87
2019-03-17T09:37:19.607Z,9.77
2019-03-17T09:39:50.857Z,8.90
2019-03-17T09:42:21.090Z,9.17
2019-03-17T09:44:51.467Z,8.40
2019-03-17T09:47:21.934Z,8.87
2019-03-17T09:49:52.406Z,7.97
2019-03-17T09:52:25.221Z,7.80
2019-03-17T09:54:55.797Z,7.50
2019-03-17T09:57:26.187Z,7.97
2019-03-17T09:59:56.507Z,7.27
2019-03-17T10:02:26.844Z,7.33
2019-03-17T10:04:57.241Z,7.43
2019-03-17T10:07:27.525Z,6.17
2019-03-17T10:09:57.851Z,6.60
2019-03-17T10:12:28.170Z,7.13
2019-03-17T10:14:59.501Z,7.47
2019-03-17T10:17:29.812Z,7.60
2019-03-17T10:20:00.374Z,7.40
2019-03-17T10:22:32.214Z,7.27
2019-03-17T10:25:02.519Z,8.30
2019-03-17T10:27:32.781Z,8.00
2019-03-17T10:30:03.086Z,8.20
2019-03-17T10:32:33.862Z,8.73
2019-03-17T10:35:04.279Z,7.77
2019-03-17T10:37:34.906Z,8.13
2019-03-17T10:40:06.685Z,6.87
2019-03-17T10:42:36.955Z,6.20
2019-03-17T10:45:07.395Z,6.10
2019-03-17T10:47:37.790Z,6.10
2019-03-17T10:50:10.595Z,6.27
2019-03-17T10:52:40.838Z,5.90
2019-03-17T10:55:12.657Z,6.00
2019-03-17T10:57:43.026Z,5.67
2019-03-17T11:00:14.818Z,5.83
2019-03-17T11:02:45.104Z,5.90
2019-03-17T11:05:16.702Z,5.57
2019-03-17T11:07:47.338Z,6.07
2019-03-17T11:10:17.592Z,5.77
2019-03-17T11:12:47.879Z,5.60
2019-03-17T11:15:19.857Z,5.20
2019-03-17T11:17:50.147Z,5.07
2019-03-17T11:20:20.940Z,5.27
2019-03-17T11:22:51.390Z,5.60
2019-03-17T11:25:22.878Z,5.30
2019-03-17T11:27:53.149Z,5.23
2019-03-17T11:30:23.659Z,5.30
2019-03-17T11:32:53.932Z,5.00
2019-03-17T11:35:24.410Z,4.90
2019-03-17T11:37:54.725Z,4.67
2019-03-17T11:40:25.082Z,4.43
2019-03-17T11:42:55.355Z,4.30
2019-03-17T11:45:25.677Z,4.50
2019-03-17T11:47:55.908Z,4.70
2019-03-17T11:50:26.291Z,4.33
2019-03-17T11:52:56.557Z,5.10
2019-03-17T11:55:26.864Z,4.30
2019-03-17T11:57:57.268Z,4.23
2019-03-17T12:00:27.634Z,4.70
2019-03-17T12:02:57.905Z,4.27
2019-03-17T12:05:28.299Z,4.20
2019-03-17T12:07:58.641Z,4.93
2019-03-17T12:10:28.927Z,4.30
2019-03-17T12:12:59.187Z,4.37
2019-03-17T12:15:29.533Z,3.87
2019-03-17T12:17:59.880Z,4.00
2019-03-17T12:20:30.218Z,4.40
2019-03-17T12:23:00.479Z,4.20
2019-03-17T12:25:30.816Z,4.00
2019-03-17T12:28:01.214Z,3.77
2019-03-17T12:30:31.578Z,4.03
2019-03-17T12:33:01.840Z,3.57
2019-03-17T12:35:32.417Z,3.40
2019-03-17T12:38:02.590Z,3.52
2019-03-17T12:40:33.237Z,2.92
2019-03-17T12:43:03.496Z,3.20
2019-03-17T12:45:34.271Z,3.13
2019-03-17T12:48:04.581Z,3.03
2019-03-17T12:50:35.046Z,3.53
2019-03-17T12:53:07.915Z,3.23
2019-03-17T12:55:38.399Z,3.43
2019-03-17T12:58:08.662Z,3.80
2019-03-17T13:00:38.976Z,3.50
2019-03-17T13:03:09.257Z,4.07
2019-03-17T13:05:39.757Z,4.37
2019-03-17T13:08:10.167Z,3.30
2019-03-17T13:10:41.980Z,3.37
2019-03-17T13:13:12.281Z,3.30
2019-03-17T13:15:43.093Z,3.37
2019-03-17T13:18:14.061Z,3.30
2019-03-17T13:20:44.655Z,3.58
2019-03-17T13:23:14.913Z,2.97
2019-03-17T13:25:45.519Z,3.57
2019-03-17T13:28:15.774Z,3.13
2019-03-17T13:30:46.281Z,3.80
2019-03-17T13:33:16.575Z,3.70
2019-03-17T13:35:47.338Z,3.45
2019-03-17T13:38:17.841Z,3.50
2019-03-17T13:40:48.125Z,4.12
2019-03-17T13:43:18.538Z,3.25
2019-03-17T13:45:49.461Z,3.63
2019-03-17T13:48:19.830Z,3.67
2019-03-17T13:50:50.121Z,3.10
2019-03-17T13:53:22.753Z,3.20
2019-03-17T13:55:52.843Z,3.30
2019-03-17T13:58:23.092Z,3.27
2019-03-17T14:00:53.564Z,3.50
2019-03-17T14:03:23.802Z,3.20
2019-03-17T14:05:55.197Z,3.20
2019-03-17T14:08:25.570Z,3.00
2019-03-17T14:10:58.272Z,3.40
2019-03-17T14:13:28.955Z,3.20
2019-03-17T14:15:59.456Z,3.10
2019-03-17T14:18:30.254Z,3.30
2019-03-17T14:21:01.194Z,3.17
2019-03-17T14:23:31.482Z,3.00
2019-03-17T14:26:01.798Z,2.80
2019-03-17T14:28:32.800Z,2.70
2019-03-17T14:31:03.730Z,2.63
2019-03-17T14:33:34.031Z,2.90
2019-03-17T14:36:04.281Z,2.67
2019-03-17T14:39:37.834Z,2.63
2019-03-17T14:42:08.165Z,2.70
2019-03-17T14:44:38.886Z,2.67
2019-03-17T14:47:09.332Z,2.83
2019-03-17T14:49:39.636Z,3.02
2019-03-17T14:52:09.826Z,3.27
2019-03-17T14:54:40.122Z,2.83
2019-03-17T14:57:10.410Z,3.22
2019-03-17T14:59:40.659Z,2.77
2019-03-17T15:02:10.938Z,2.90
2019-03-17T15:04:41.306Z,3.43
2019-03-17T15:07:11.752Z,3.05
2019-03-17T15:09:45.580Z,2.67
2019-03-17T15:12:15.855Z,3.07
2019-03-17T15:14:46.090Z,2.80
2019-03-17T15:17:16.352Z,2.50
2019-03-17T15:19:46.663Z,2.58
2019-03-17T15:22:16.948Z,2.60
2019-03-17T15:24:47.241Z,2.58
2019-03-17T15:27:17.514Z,2.37
2019-03-17T15:29:48.094Z,2.70
2019-03-17T15:32:18.513Z,2.70
2019-03-17T15:34:48.820Z,2.77
2019-03-17T15:37:19.370Z,3.20
2019-03-17T15:39:49.872Z,2.90
2019-03-17T15:42:20.131Z,2.67
2019-03-17T15:44:50.409Z,2.62
2019-03-17T15:47:20.883Z,2.40
2019-03-17T15:49:51.123Z,3.20
2019-03-17T15:52:21.559Z,3.05
2019-03-17T15:54:51.824Z,4.27
2019-03-17T15:57:22.109Z,4.45
2019-03-17T15:59:52.685Z,3.80
2019-03-17T16:02:22.953Z,3.50
2019-03-17T16:04:53.204Z,3.15
2019-03-17T16:07:23.557Z,2.90
2019-03-17T16:09:53.806Z,3.20
2019-03-17T16:12:24.123Z,3.45
2019-03-17T16:14:54.419Z,3.60
2019-03-17T16:17:25.087Z,3.80
2019-03-17T16:19:55.373Z,3.50
2019-03-17T16:22:25.768Z,3.83
2019-03-17T16:24:57.029Z,3.70
2019-03-17T16:27:27.410Z,3.98
2019-03-17T16:29:57.726Z,3.33
2019-03-17T16:32:28.109Z,4.00
2019-03-17T16:34:58.376Z,3.70
2019-03-17T16:37:29.247Z,3.50
2019-03-17T16:39:59.519Z,3.63
2019-03-17T16:42:30.083Z,3.87
2019-03-17T16:45:00.390Z,4.10
2019-03-17T16:47:30.727Z,4.10
2019-03-17T16:50:01.169Z,3.83
2019-03-17T16:52:31.523Z,4.40
2019-03-17T16:55:01.828Z,3.80
2019-03-17T16:57:32.204Z,3.80
2019-03-17T17:00:02.723Z,4.37
2019-03-17T17:02:33.157Z,4.40
2019-03-17T17:05:03.598Z,4.47
2019-03-17T17:07:35.075Z,4.83
2019-03-17T17:10:06.110Z,4.93
2019-03-17T17:12:36.485Z,4.93
2019-03-17T17:15:10.374Z,5.50
2019-03-17T17:17:41.079Z,4.70
2019-03-17T17:20:14.326Z,5.43
2019-03-17T17:22:45.119Z,5.63
2019-03-17T17:25:15.903Z,5.93
2019-03-17T17:27:46.327Z,6.30
2019-03-17T17:30:17.328Z,5.93
2019-03-17T17:32:47.945Z,5.83
2019-03-17T17:35:18.558Z,5.73
2019-03-17T17:37:49.213Z,6.90
2019-03-17T17:40:19.781Z,6.00
2019-03-17T17:42:50.087Z,5.77
2019-03-17T17:45:20.536Z,5.97
2019-03-17T17:47:50.958Z,6.27
2019-03-17T17:50:21.731Z,6.37
2019-03-17T17:52:52.020Z,5.57
2019-03-17T17:55:22.447Z,6.50
2019-03-17T17:57:53.294Z,6.30
2019-03-17T18:00:24.540Z,6.27
2019-03-17T18:02:55.035Z,6.90
2019-03-17T18:05:25.739Z,6.43
2019-03-17T18:07:56.474Z,6.30
2019-03-17T18:10:27.206Z,6.10
2019-03-17T18:12:57.514Z,6.33
2019-03-17T18:15:28.046Z,6.57
2019-03-17T18:17:58.654Z,6.87
2019-03-17T18:20:28.951Z,7.30
2019-03-17T18:22:59.638Z,7.47
2019-03-17T18:25:29.963Z,8.53
2019-03-17T18:28:00.366Z,8.10
2019-03-17T18:30:30.787Z,8.47
2019-03-17T18:33:02.046Z,9.50
2019-03-17T18:35:32.343Z,9.27
2019-03-17T18:38:02.591Z,8.73
2019-03-17T18:40:34.307Z,9.27
2019-03-17T18:43:04.566Z,9.53
2019-03-17T18:45:35.258Z,9.97
2019-03-17T18:48:05.550Z,9.50
2019-03-17T18:50:35.830Z,9.03
2019-03-17T18:53:06.136Z,8.80
2019-03-17T18:55:36.417Z,8.13
2019-03-17T18:58:07.088Z,8.57
2019-03-17T19:00:37.344Z,8.23
2019-03-17T19:03:08.322Z,8.83
2019-03-17T19:05:38.768Z,7.57
2019-03-17T19:08:09.062Z,9.33
2019-03-17T19:10:39.370Z,9.00
2019-03-17T19:13:09.714Z,9.23
2019-03-17T19:15:40.094Z,9.50
2019-03-17T19:18:10.639Z,9.47
2019-03-17T19:20:41.217Z,9.50
2019-03-17T19:23:17.352Z,8.77
2019-03-17T19:25:51.124Z,9.53
2019-03-17T19:28:21.510Z,8.83
2019-03-17T19:30:51.788Z,9.17
2019-03-17T19:33:22.955Z,9.27
2019-03-17T19:35:55.076Z,9.13
2019-03-17T19:38:25.525Z,10.07
2019-03-17T19:40:56.146Z,10.23
2019-03-17T19:43:26.505Z,9.83
2019-03-17T19:45:56.978Z,9.83
2019-03-17T19:48:27.303Z,9.73
2019-03-17T19:50:57.908Z,9.63
2019-03-17T19:53:28.194Z,10.20
2019-03-17T19:55:58.534Z,9.63
2019-03-17T19:58:28.814Z,9.10
2019-03-17T20:00:59.125Z,9.13
2019-03-17T20:03:29.527Z,9.43
2019-03-17T20:06:02.490Z,8.87
2019-03-17T20:08:32.274Z,8.33
2019-03-17T20:11:02.996Z,9.03
2019-03-17T20:13:33.314Z,8.53
2019-03-17T20:16:03.728Z,8.80
2019-03-17T20:18:34.571Z,9.17
2019-03-17T20:21:04.931Z,8.70
2019-03-17T20:23:35.709Z,9.33
2019-03-17T20:26:06.634Z,9.03
2019-03-17T20:28:37.135Z,9.43
2019-03-17T20:31:07.423Z,9.70
2019-03-17T20:33:38.439Z,9.63
2019-03-17T20:36:08.816Z,11.03
2019-03-17T20:38:39.490Z,10.83
2019-03-17T20:41:10.125Z,11.80
2019-03-17T20:43:40.565Z,12.00
2019-03-17T20:46:10.996Z,12.37
2019-03-17T20:48:41.333Z,13.73
2019-03-17T20:51:11.621Z,13.33
2019-03-17T20:53:43.295Z,13.90
2019-03-17T20:56:13.670Z,13.70
2019-03-17T20:58:43.993Z,14.60
2019-03-17T21:01:14.271Z,14.80
2019-03-17T21:03:44.585Z,12.93
2019-03-17T21:06:15.644Z,14.20
2019-03-17T21:08:46.122Z,13.30
2019-03-17T21:11:17.577Z,13.73
2019-03-17T21:13:48.032Z,13.20
2019-03-17T21:16:18.310Z,14.17
2019-03-17T21:18:49.141Z,13.67
2019-03-17T21:21:19.466Z,12.77
2019-03-17T21:23:49.821Z,13.97
2019-03-17T21:26:20.255Z,12.40
2019-03-17T21:28:50.555Z,11.97
2019-03-17T21:31:20.872Z,11.17
2019-03-17T21:33:51.231Z,10.97
2019-03-17T21:36:22.160Z,10.20
2019-03-17T21:38:52.456Z,10.23
2019-03-17T21:41:24.011Z,9.40
2019-03-17T21:43:59.501Z,9.60
2019-03-17T21:46:29.469Z,8.70
2019-03-17T21:49:01.223Z,9.00
2019-03-17T21:51:31.749Z,9.63
2019-03-17T21:54:02.181Z,9.03
2019-03-17T21:56:32.967Z,9.17
2019-03-17T21:59:03.750Z,8.53
2019-03-17T22:01:34.338Z,8.30
2019-03-17T22:04:04.640Z,8.27
2019-03-17T22:06:36.312Z,8.10
2019-03-17T22:09:07.839Z,8.73
2019-03-17T22:11:38.442Z,8.77
2019-03-17T22:14:12.344Z,8.97
2019-03-17T22:16:40.912Z,9.33
2019-03-17T22:19:11.548Z,9.53
2019-03-17T22:21:41.860Z,9.47
2019-03-17T22:24:12.216Z,9.63
2019-03-17T22:26:42.850Z,13.00
2019-03-17T22:29:13.247Z,12.73
2019-03-17T22:31:43.677Z,13.53
2019-03-17T22:34:14.206Z,14.00
2019-03-17T22:36:44.540Z,12.10
2019-03-17T22:39:14.789Z,13.40
2019-03-17T22:41:45.512Z,11.83
2019-03-17T22:44:24.151Z,11.83
2019-03-17T22:46:47.738Z,11.27
2019-03-17T22:49:18.078Z,11.83
2019-03-17T22:51:48.409Z,11.30
2019-03-17T22:54:18.751Z,9.90
2019-03-17T22:56:49.086Z,10.00
2019-03-17T22:59:19.728Z,8.03
2019-03-17T23:01:50.242Z,8.40
2019-03-17T23:04:25.446Z,7.40
2019-03-17T23:06:56.292Z,7.47
2019-03-17T23:09:27.187Z,5.83
2019-03-17T23:11:58.442Z,5.30
2019-03-17T23:14:36.538Z,5.20
2019-03-17T23:17:02.114Z,4.47
2019-03-17T23:19:32.845Z,4.50
2019-03-17T23:22:03.510Z,4.73
2019-03-17T23:24:34.042Z,4.93
2019-03-17T23:27:05.286Z,4.20
2019-03-17T23:29:35.989Z,3.60
2019-03-17T23:32:07.237Z,2.77
2019-03-17T23:34:38.040Z,2.30
2019-03-17T23:37:08.499Z,1.80
2019-03-17T23:39:39.288Z,1.70
2019-03-17T23:42:09.757Z,1.70
2019-03-17T23:44:48.819Z,1.87
2019-03-17T23:47:12.900Z,1.40
2019-03-17T23:49:44.140Z,1.77
2019-03-17T23:52:14.867Z,1.60
2019-03-17T23:54:46.030Z,1.80
2019-03-17T23:57:16.630Z,1.40
2019-03-17T23:59:47.908Z,1.53
